sensor_id;sensor_type;location;lat;lon;timestamp;temperature;humidity
51793;DHT22;37850;53.178;6.376;2023-04-21T00:01:31;8.50;99.90
51793;DHT22;37850;53.178;6.376;2023-04-21T00:03:57;9.00;99.90
51793;DHT22;37850;53.178;6.376;2023-04-21T00:06:24;8.60;99.90
51793;DHT22;37850;53.178;6.376;2023-04-21T00:08:51;8.50;99.90
51793;DHT22;37850;53.178;6.376;2023-04-21T00:11:17;8.50;99.90
51793;DHT22;37850;53.178;6.376;2023-04-21T00:13:43;8.50;99.90
51793;DHT22;37850;53.178;6.376;2023-04-21T00:16:09;8.50;99.90
51793;DHT22;37850;53.178;6.376;2023-04-21T00:18:35;8.50;99.90
51793;DHT22;37850;53.178;6.376;2023-04-21T00:21:01;8.80;99.90
51793;DHT22;37850;53.178;6.376;2023-04-21T00:23:27;8.50;99.90
51793;DHT22;37850;53.178;6.376;2023-04-21T00:25:53;8.60;99.90
51793;DHT22;37850;53.178;6.376;2023-04-21T00:28:18;8.50;99.90
51793;DHT22;37850;53.178;6.376;2023-04-21T00:30:45;8.40;99.90
51793;DHT22;37850;53.178;6.376;2023-04-21T00:33:10;8.40;99.90
51793;DHT22;37850;53.178;6.376;2023-04-21T00:35:36;8.40;99.90
51793;DHT22;37850;53.178;6.376;2023-04-21T00:38:02;8.90;99.90
51793;DHT22;37850;53.178;6.376;2023-04-21T00:40:28;8.40;99.90
51793;DHT22;37850;53.178;6.376;2023-04-21T00:42:53;8.40;99.90
51793;DHT22;37850;53.178;6.376;2023-04-21T00:45:20;8.40;99.90
51793;DHT22;37850;53.178;6.376;2023-04-21T00:47:45;8.30;99.90
51793;DHT22;37850;53.178;6.376;2023-04-21T00:50:11;8.30;99.90
51793;DHT22;37850;53.178;6.376;2023-04-21T00:52:42;8.30;99.90
51793;DHT22;37850;53.178;6.376;2023-04-21T00:55:09;8.30;99.90
51793;DHT22;37850;53.178;6.376;2023-04-21T00:57:36;8.20;99.90
51793;DHT22;37850;53.178;6.376;2023-04-21T01:00:05;8.20;99.90
51793;DHT22;37850;53.178;6.376;2023-04-21T01:02:37;8.20;99.90
51793;DHT22;37850;53.178;6.376;2023-04-21T01:05:07;8.20;99.90
51793;DHT22;37850;53.178;6.376;2023-04-21T01:07:34;8.10;99.90
51793;DHT22;37850;53.178;6.376;2023-04-21T01:10:01;8.10;99.90
51793;DHT22;37850;53.178;6.376;2023-04-21T01:12:26;8.10;99.90
51793;DHT22;37850;53.178;6.376;2023-04-21T01:14:52;8.10;99.90
51793;DHT22;37850;53.178;6.376;2023-04-21T01:17:18;8.00;99.90
51793;DHT22;37850;53.178;6.376;2023-04-21T01:19:44;8.10;99.90
51793;DHT22;37850;53.178;6.376;2023-04-21T01:22:11;8.50;99.90
51793;DHT22;37850;53.178;6.376;2023-04-21T01:24:42;8.00;99.90
51793;DHT22;37850;53.178;6.376;2023-04-21T01:27:14;8.00;99.90
51793;DHT22;37850;53.178;6.376;2023-04-21T01:29:40;8.00;99.90
51793;DHT22;37850;53.178;6.376;2023-04-21T01:32:12;8.00;99.90
51793;DHT22;37850;53.178;6.376;2023-04-21T01:34:39;7.90;99.90
51793;DHT22;37850;53.178;6.376;2023-04-21T01:37:11;7.90;99.90
51793;DHT22;37850;53.178;6.376;2023-04-21T01:39:38;7.90;99.90
51793;DHT22;37850;53.178;6.376;2023-04-21T01:42:04;7.90;99.90
51793;DHT22;37850;53.178;6.376;2023-04-21T01:44:30;7.90;99.90
51793;DHT22;37850;53.178;6.376;2023-04-21T01:46:56;7.90;99.90
51793;DHT22;37850;53.178;6.376;2023-04-21T01:49:22;8.30;99.90
51793;DHT22;37850;53.178;6.376;2023-04-21T01:51:47;7.80;99.90
51793;DHT22;37850;53.178;6.376;2023-04-21T01:54:13;7.80;99.90
51793;DHT22;37850;53.178;6.376;2023-04-21T01:56:39;7.80;99.90
51793;DHT22;37850;53.178;6.376;2023-04-21T01:59:05;7.80;99.90
51793;DHT22;37850;53.178;6.376;2023-04-21T02:01:31;7.80;99.90
51793;DHT22;37850;53.178;6.376;2023-04-21T02:03:57;7.80;99.90
51793;DHT22;37850;53.178;6.376;2023-04-21T02:06:22;7.90;99.90
51793;DHT22;37850;53.178;6.376;2023-04-21T02:08:48;7.90;99.90
51793;DHT22;37850;53.178;6.376;2023-04-21T02:11:14;7.90;99.90
51793;DHT22;37850;53.178;6.376;2023-04-21T02:13:39;7.90;99.90
51793;DHT22;37850;53.178;6.376;2023-04-21T02:16:05;8.00;99.90
51793;DHT22;37850;53.178;6.376;2023-04-21T02:18:31;8.00;99.90
51793;DHT22;37850;53.178;6.376;2023-04-21T02:20:58;8.00;99.90
51793;DHT22;37850;53.178;6.376;2023-04-21T02:23:24;8.00;99.90
51793;DHT22;37850;53.178;6.376;2023-04-21T02:25:50;8.00;99.90
51793;DHT22;37850;53.178;6.376;2023-04-21T02:28:15;8.00;99.90
51793;DHT22;37850;53.178;6.376;2023-04-21T02:30:41;8.00;99.90
51793;DHT22;37850;53.178;6.376;2023-04-21T02:33:07;8.00;99.90
51793;DHT22;37850;53.178;6.376;2023-04-21T02:35:33;8.00;99.90
51793;DHT22;37850;53.178;6.376;2023-04-21T02:37:59;8.00;99.90
51793;DHT22;37850;53.178;6.376;2023-04-21T02:40:30;8.00;99.90
51793;DHT22;37850;53.178;6.376;2023-04-21T02:42:56;8.00;99.90
51793;DHT22;37850;53.178;6.376;2023-04-21T02:45:22;8.00;99.90
51793;DHT22;37850;53.178;6.376;2023-04-21T02:47:48;8.00;99.90
51793;DHT22;37850;53.178;6.376;2023-04-21T02:50:14;8.00;99.90
51793;DHT22;37850;53.178;6.376;2023-04-21T02:52:40;8.00;99.90
51793;DHT22;37850;53.178;6.376;2023-04-21T02:55:06;8.00;99.90
51793;DHT22;37850;53.178;6.376;2023-04-21T02:57:32;8.00;99.90
51793;DHT22;37850;53.178;6.376;2023-04-21T02:59:58;8.00;99.90
51793;DHT22;37850;53.178;6.376;2023-04-21T03:02:23;8.00;99.90
51793;DHT22;37850;53.178;6.376;2023-04-21T03:04:52;8.00;99.90
51793;DHT22;37850;53.178;6.376;2023-04-21T03:07:18;8.00;99.90
51793;DHT22;37850;53.178;6.376;2023-04-21T03:09:44;8.40;99.90
51793;DHT22;37850;53.178;6.376;2023-04-21T03:12:10;8.00;99.90
51793;DHT22;37850;53.178;6.376;2023-04-21T03:14:39;8.00;99.90
51793;DHT22;37850;53.178;6.376;2023-04-21T03:17:05;8.00;99.90
51793;DHT22;37850;53.178;6.376;2023-04-21T03:19:31;8.00;99.90
51793;DHT22;37850;53.178;6.376;2023-04-21T03:21:57;8.00;99.90
51793;DHT22;37850;53.178;6.376;2023-04-21T03:24:23;8.00;99.90
51793;DHT22;37850;53.178;6.376;2023-04-21T03:26:49;8.00;99.90
51793;DHT22;37850;53.178;6.376;2023-04-21T03:29:16;8.00;99.90
51793;DHT22;37850;53.178;6.376;2023-04-21T03:31:41;8.00;99.90
51793;DHT22;37850;53.178;6.376;2023-04-21T03:34:07;8.00;99.90
51793;DHT22;37850;53.178;6.376;2023-04-21T03:36:33;8.00;99.90
51793;DHT22;37850;53.178;6.376;2023-04-21T03:38:59;8.00;99.90
51793;DHT22;37850;53.178;6.376;2023-04-21T03:41:24;8.20;99.90
51793;DHT22;37850;53.178;6.376;2023-04-21T03:43:50;8.30;99.90
51793;DHT22;37850;53.178;6.376;2023-04-21T03:46:22;8.10;99.90
51793;DHT22;37850;53.178;6.376;2023-04-21T03:48:48;8.10;99.90
51793;DHT22;37850;53.178;6.376;2023-04-21T03:51:14;8.00;99.90
51793;DHT22;37850;53.178;6.376;2023-04-21T03:53:40;8.10;99.90
51793;DHT22;37850;53.178;6.376;2023-04-21T03:56:06;8.10;99.90
51793;DHT22;37850;53.178;6.376;2023-04-21T03:58:32;8.10;99.90
51793;DHT22;37850;53.178;6.376;2023-04-21T04:00:58;8.10;99.90
51793;DHT22;37850;53.178;6.376;2023-04-21T04:03:24;8.10;99.90
51793;DHT22;37850;53.178;6.376;2023-04-21T04:05:50;8.20;99.90
51793;DHT22;37850;53.178;6.376;2023-04-21T04:08:16;8.70;99.90
51793;DHT22;37850;53.178;6.376;2023-04-21T04:10:42;8.00;99.90
51793;DHT22;37850;53.178;6.376;2023-04-21T04:13:08;8.10;99.90
51793;DHT22;37850;53.178;6.376;2023-04-21T04:15:34;8.10;99.90
51793;DHT22;37850;53.178;6.376;2023-04-21T04:18:00;8.00;99.90
51793;DHT22;37850;53.178;6.376;2023-04-21T04:20:26;8.10;99.90
51793;DHT22;37850;53.178;6.376;2023-04-21T04:22:52;8.00;99.90
51793;DHT22;37850;53.178;6.376;2023-04-21T04:25:17;8.10;99.90
51793;DHT22;37850;53.178;6.376;2023-04-21T04:27:43;8.40;99.90
51793;DHT22;37850;53.178;6.376;2023-04-21T04:30:10;8.10;99.90
51793;DHT22;37850;53.178;6.376;2023-04-21T04:32:36;8.00;99.90
51793;DHT22;37850;53.178;6.376;2023-04-21T04:35:07;8.00;99.90
51793;DHT22;37850;53.178;6.376;2023-04-21T04:37:35;8.20;99.90
51793;DHT22;37850;53.178;6.376;2023-04-21T04:40:01;8.00;99.90
51793;DHT22;37850;53.178;6.376;2023-04-21T04:42:30;8.00;99.90
51793;DHT22;37850;53.178;6.376;2023-04-21T04:44:58;8.30;99.90
51793;DHT22;37850;53.178;6.376;2023-04-21T04:47:24;8.00;99.90
51793;DHT22;37850;53.178;6.376;2023-04-21T04:49:50;8.00;99.90
51793;DHT22;37850;53.178;6.376;2023-04-21T04:52:16;8.00;99.90
51793;DHT22;37850;53.178;6.376;2023-04-21T04:54:41;8.70;99.90
51793;DHT22;37850;53.178;6.376;2023-04-21T04:57:07;8.00;99.90
51793;DHT22;37850;53.178;6.376;2023-04-21T04:59:33;8.40;99.90
51793;DHT22;37850;53.178;6.376;2023-04-21T05:01:59;8.10;99.90
51793;DHT22;37850;53.178;6.376;2023-04-21T05:04:24;8.10;99.90
51793;DHT22;37850;53.178;6.376;2023-04-21T05:06:50;8.10;99.90
51793;DHT22;37850;53.178;6.376;2023-04-21T05:09:16;8.10;99.90
51793;DHT22;37850;53.178;6.376;2023-04-21T05:11:42;8.20;99.90
51793;DHT22;37850;53.178;6.376;2023-04-21T05:14:08;8.20;99.90
51793;DHT22;37850;53.178;6.376;2023-04-21T05:16:34;8.20;99.90
51793;DHT22;37850;53.178;6.376;2023-04-21T05:19:03;8.30;99.90
51793;DHT22;37850;53.178;6.376;2023-04-21T05:21:29;8.40;99.90
51793;DHT22;37850;53.178;6.376;2023-04-21T05:23:56;8.60;99.90
51793;DHT22;37850;53.178;6.376;2023-04-21T05:26:24;8.90;99.90
51793;DHT22;37850;53.178;6.376;2023-04-21T05:28:52;9.10;99.90
51793;DHT22;37850;53.178;6.376;2023-04-21T05:31:18;9.40;99.90
51793;DHT22;37850;53.178;6.376;2023-04-21T05:33:43;9.50;99.90
51793;DHT22;37850;53.178;6.376;2023-04-21T05:36:09;9.70;99.90
51793;DHT22;37850;53.178;6.376;2023-04-21T05:38:35;9.80;99.90
51793;DHT22;37850;53.178;6.376;2023-04-21T05:41:02;9.90;99.90
51793;DHT22;37850;53.178;6.376;2023-04-21T05:43:29;9.70;99.90
51793;DHT22;37850;53.178;6.376;2023-04-21T05:45:59;9.70;99.90
51793;DHT22;37850;53.178;6.376;2023-04-21T05:48:25;9.70;99.90
51793;DHT22;37850;53.178;6.376;2023-04-21T05:50:52;9.60;99.90
51793;DHT22;37850;53.178;6.376;2023-04-21T05:53:17;9.60;99.90
51793;DHT22;37850;53.178;6.376;2023-04-21T05:55:43;9.60;99.90
51793;DHT22;37850;53.178;6.376;2023-04-21T05:58:09;9.60;99.90
51793;DHT22;37850;53.178;6.376;2023-04-21T06:00:35;9.60;99.90
51793;DHT22;37850;53.178;6.376;2023-04-21T06:03:01;10.10;99.90
51793;DHT22;37850;53.178;6.376;2023-04-21T06:05:27;9.60;99.90
51793;DHT22;37850;53.178;6.376;2023-04-21T06:07:53;9.60;99.90
51793;DHT22;37850;53.178;6.376;2023-04-21T06:10:20;9.50;99.90
51793;DHT22;37850;53.178;6.376;2023-04-21T06:12:46;9.60;99.90
51793;DHT22;37850;53.178;6.376;2023-04-21T06:15:12;9.50;99.90
51793;DHT22;37850;53.178;6.376;2023-04-21T06:17:37;9.50;99.90
51793;DHT22;37850;53.178;6.376;2023-04-21T06:20:04;9.50;99.90
51793;DHT22;37850;53.178;6.376;2023-04-21T06:22:30;9.50;99.90
51793;DHT22;37850;53.178;6.376;2023-04-21T06:24:57;9.60;99.90
51793;DHT22;37850;53.178;6.376;2023-04-21T06:27:23;9.60;99.90
51793;DHT22;37850;53.178;6.376;2023-04-21T06:29:53;9.70;99.90
51793;DHT22;37850;53.178;6.376;2023-04-21T06:32:20;9.80;99.90
51793;DHT22;37850;53.178;6.376;2023-04-21T06:34:46;9.80;99.90
51793;DHT22;37850;53.178;6.376;2023-04-21T06:37:12;10.10;99.90
51793;DHT22;37850;53.178;6.376;2023-04-21T06:39:38;10.10;99.90
51793;DHT22;37850;53.178;6.376;2023-04-21T06:42:03;10.10;99.90
51793;DHT22;37850;53.178;6.376;2023-04-21T06:44:29;10.20;99.90
51793;DHT22;37850;53.178;6.376;2023-04-21T06:46:56;10.30;99.90
51793;DHT22;37850;53.178;6.376;2023-04-21T06:49:22;10.40;99.90
51793;DHT22;37850;53.178;6.376;2023-04-21T06:51:48;10.50;99.90
51793;DHT22;37850;53.178;6.376;2023-04-21T06:54:14;10.50;99.90
51793;DHT22;37850;53.178;6.376;2023-04-21T06:56:40;10.60;99.90
51793;DHT22;37850;53.178;6.376;2023-04-21T06:59:08;10.70;99.90
51793;DHT22;37850;53.178;6.376;2023-04-21T07:01:34;10.70;99.90
51793;DHT22;37850;53.178;6.376;2023-04-21T07:03:59;10.80;99.90
51793;DHT22;37850;53.178;6.376;2023-04-21T07:06:26;10.80;99.90
51793;DHT22;37850;53.178;6.376;2023-04-21T07:08:51;10.90;99.90
51793;DHT22;37850;53.178;6.376;2023-04-21T07:11:17;11.00;99.90
51793;DHT22;37850;53.178;6.376;2023-04-21T07:13:44;11.10;99.90
51793;DHT22;37850;53.178;6.376;2023-04-21T07:16:10;11.30;99.90
51793;DHT22;37850;53.178;6.376;2023-04-21T07:18:35;11.30;99.90
51793;DHT22;37850;53.178;6.376;2023-04-21T07:21:03;11.40;99.90
51793;DHT22;37850;53.178;6.376;2023-04-21T07:23:29;11.50;99.90
51793;DHT22;37850;53.178;6.376;2023-04-21T07:25:55;11.60;99.90
51793;DHT22;37850;53.178;6.376;2023-04-21T07:28:20;11.70;99.90
51793;DHT22;37850;53.178;6.376;2023-04-21T07:30:46;11.80;99.90
51793;DHT22;37850;53.178;6.376;2023-04-21T07:33:13;11.90;99.90
51793;DHT22;37850;53.178;6.376;2023-04-21T07:35:38;11.90;99.90
51793;DHT22;37850;53.178;6.376;2023-04-21T07:38:04;12.00;99.90
51793;DHT22;37850;53.178;6.376;2023-04-21T07:40:30;12.00;99.90
51793;DHT22;37850;53.178;6.376;2023-04-21T07:42:56;12.10;99.90
51793;DHT22;37850;53.178;6.376;2023-04-21T07:45:21;12.20;99.90
51793;DHT22;37850;53.178;6.376;2023-04-21T07:47:47;12.30;99.90
51793;DHT22;37850;53.178;6.376;2023-04-21T07:50:13;12.30;99.90
51793;DHT22;37850;53.178;6.376;2023-04-21T07:52:39;12.40;99.90
51793;DHT22;37850;53.178;6.376;2023-04-21T07:55:05;12.50;99.90
51793;DHT22;37850;53.178;6.376;2023-04-21T07:57:31;12.60;99.90
51793;DHT22;37850;53.178;6.376;2023-04-21T07:59:58;12.60;99.90
51793;DHT22;37850;53.178;6.376;2023-04-21T08:02:24;12.70;99.90
51793;DHT22;37850;53.178;6.376;2023-04-21T08:04:50;12.70;99.90
51793;DHT22;37850;53.178;6.376;2023-04-21T08:07:16;12.80;99.90
51793;DHT22;37850;53.178;6.376;2023-04-21T08:09:42;12.90;99.90
51793;DHT22;37850;53.178;6.376;2023-04-21T08:12:09;13.00;99.90
51793;DHT22;37850;53.178;6.376;2023-04-21T08:14:34;13.10;99.90
51793;DHT22;37850;53.178;6.376;2023-04-21T08:17:00;13.10;99.90
51793;DHT22;37850;53.178;6.376;2023-04-21T08:19:26;13.20;99.90
51793;DHT22;37850;53.178;6.376;2023-04-21T08:21:52;13.20;99.90
51793;DHT22;37850;53.178;6.376;2023-04-21T08:24:18;13.30;99.90
51793;DHT22;37850;53.178;6.376;2023-04-21T08:26:44;13.40;99.90
51793;DHT22;37850;53.178;6.376;2023-04-21T08:29:10;13.40;99.90
51793;DHT22;37850;53.178;6.376;2023-04-21T08:31:37;13.50;99.90
51793;DHT22;37850;53.178;6.376;2023-04-21T08:34:03;13.60;99.90
51793;DHT22;37850;53.178;6.376;2023-04-21T08:36:29;13.70;99.90
51793;DHT22;37850;53.178;6.376;2023-04-21T08:38:56;13.70;99.90
51793;DHT22;37850;53.178;6.376;2023-04-21T08:41:22;13.80;99.90
51793;DHT22;37850;53.178;6.376;2023-04-21T08:43:48;13.80;99.90
51793;DHT22;37850;53.178;6.376;2023-04-21T08:46:15;13.90;99.90
51793;DHT22;37850;53.178;6.376;2023-04-21T08:48:41;13.90;99.90
51793;DHT22;37850;53.178;6.376;2023-04-21T08:51:07;14.30;99.90
51793;DHT22;37850;53.178;6.376;2023-04-21T08:53:38;14.00;99.90
51793;DHT22;37850;53.178;6.376;2023-04-21T08:56:06;14.10;99.90
51793;DHT22;37850;53.178;6.376;2023-04-21T08:58:32;14.20;99.90
51793;DHT22;37850;53.178;6.376;2023-04-21T09:00:57;14.30;99.90
51793;DHT22;37850;53.178;6.376;2023-04-21T09:03:27;14.30;99.90
51793;DHT22;37850;53.178;6.376;2023-04-21T09:06:05;14.40;99.90
51793;DHT22;37850;53.178;6.376;2023-04-21T09:08:31;14.50;99.90
51793;DHT22;37850;53.178;6.376;2023-04-21T09:10:59;14.50;99.90
51793;DHT22;37850;53.178;6.376;2023-04-21T09:13:34;14.60;99.90
51793;DHT22;37850;53.178;6.376;2023-04-21T09:16:01;14.70;99.90
51793;DHT22;37850;53.178;6.376;2023-04-21T09:18:29;14.70;99.90
51793;DHT22;37850;53.178;6.376;2023-04-21T09:21:15;14.80;99.90
51793;DHT22;37850;53.178;6.376;2023-04-21T09:23:49;14.90;99.90
51793;DHT22;37850;53.178;6.376;2023-04-21T09:26:17;14.80;99.90
51793;DHT22;37850;53.178;6.376;2023-04-21T09:28:46;15.00;99.90
51793;DHT22;37850;53.178;6.376;2023-04-21T09:31:22;15.10;99.90
51793;DHT22;37850;53.178;6.376;2023-04-21T09:33:55;15.20;99.90
51793;DHT22;37850;53.178;6.376;2023-04-21T09:36:23;15.20;99.90
51793;DHT22;37850;53.178;6.376;2023-04-21T09:39:02;15.30;99.90
51793;DHT22;37850;53.178;6.376;2023-04-21T09:41:30;15.40;99.90
51793;DHT22;37850;53.178;6.376;2023-04-21T09:43:56;15.50;99.90
51793;DHT22;37850;53.178;6.376;2023-04-21T09:46:26;15.50;99.90
51793;DHT22;37850;53.178;6.376;2023-04-21T09:48:55;15.50;99.90
51793;DHT22;37850;53.178;6.376;2023-04-21T09:51:23;15.60;99.90
51793;DHT22;37850;53.178;6.376;2023-04-21T09:53:52;15.60;99.90
51793;DHT22;37850;53.178;6.376;2023-04-21T09:56:24;15.70;99.90
51793;DHT22;37850;53.178;6.376;2023-04-21T09:58:55;15.60;99.90
51793;DHT22;37850;53.178;6.376;2023-04-21T10:01:23;15.60;99.90
51793;DHT22;37850;53.178;6.376;2023-04-21T10:03:51;15.60;99.90
51793;DHT22;37850;53.178;6.376;2023-04-21T10:06:18;15.60;99.90
51793;DHT22;37850;53.178;6.376;2023-04-21T10:08:48;15.70;99.90
51793;DHT22;37850;53.178;6.376;2023-04-21T10:11:16;15.70;99.90
51793;DHT22;37850;53.178;6.376;2023-04-21T10:13:43;15.70;99.90
51793;DHT22;37850;53.178;6.376;2023-04-21T10:16:10;15.80;99.90
51793;DHT22;37850;53.178;6.376;2023-04-21T10:18:45;15.80;99.90
51793;DHT22;37850;53.178;6.376;2023-04-21T10:21:16;16.00;99.90
51793;DHT22;37850;53.178;6.376;2023-04-21T10:23:51;16.10;99.90
51793;DHT22;37850;53.178;6.376;2023-04-21T10:26:19;16.20;99.90
51793;DHT22;37850;53.178;6.376;2023-04-21T10:29:02;16.30;99.90
51793;DHT22;37850;53.178;6.376;2023-04-21T10:36:33;16.60;99.90
51793;DHT22;37850;53.178;6.376;2023-04-21T10:39:03;16.70;99.90
51793;DHT22;37850;53.178;6.376;2023-04-21T10:41:29;16.80;99.90
51793;DHT22;37850;53.178;6.376;2023-04-21T10:49:10;17.00;99.90
51793;DHT22;37850;53.178;6.376;2023-04-21T10:57:12;17.20;99.90
51793;DHT22;37850;53.178;6.376;2023-04-21T10:59:39;17.30;99.90
51793;DHT22;37850;53.178;6.376;2023-04-21T11:02:10;17.30;99.90
51793;DHT22;37850;53.178;6.376;2023-04-21T11:04:37;17.30;99.90
51793;DHT22;37850;53.178;6.376;2023-04-21T11:07:17;17.30;99.90
51793;DHT22;37850;53.178;6.376;2023-04-21T11:09:44;17.40;99.90
51793;DHT22;37850;53.178;6.376;2023-04-21T11:12:12;17.30;99.90
51793;DHT22;37850;53.178;6.376;2023-04-21T11:14:41;17.40;99.90
51793;DHT22;37850;53.178;6.376;2023-04-21T11:17:25;17.40;99.90
51793;DHT22;37850;53.178;6.376;2023-04-21T11:19:53;17.50;99.90
51793;DHT22;37850;53.178;6.376;2023-04-21T11:22:23;17.60;99.90
51793;DHT22;37850;53.178;6.376;2023-04-21T11:24:52;17.60;99.90
51793;DHT22;37850;53.178;6.376;2023-04-21T11:27:22;17.70;99.90
51793;DHT22;37850;53.178;6.376;2023-04-21T11:29:50;17.80;99.90
51793;DHT22;37850;53.178;6.376;2023-04-21T11:32:17;17.80;99.90
51793;DHT22;37850;53.178;6.376;2023-04-21T11:34:43;17.90;99.90
51793;DHT22;37850;53.178;6.376;2023-04-21T11:37:13;18.00;99.90
51793;DHT22;37850;53.178;6.376;2023-04-21T11:39:40;18.10;99.90
51793;DHT22;37850;53.178;6.376;2023-04-21T11:42:06;18.00;99.90
51793;DHT22;37850;53.178;6.376;2023-04-21T11:47:17;17.90;99.90
51793;DHT22;37850;53.178;6.376;2023-04-21T11:49:50;17.80;99.90
51793;DHT22;37850;53.178;6.376;2023-04-21T11:52:28;17.80;99.90
51793;DHT22;37850;53.178;6.376;2023-04-21T11:54:59;17.90;99.90
51793;DHT22;37850;53.178;6.376;2023-04-21T11:57:26;17.90;99.90
51793;DHT22;37850;53.178;6.376;2023-04-21T11:59:53;17.80;99.90
51793;DHT22;37850;53.178;6.376;2023-04-21T12:02:28;17.80;99.90
51793;DHT22;37850;53.178;6.376;2023-04-21T12:07:29;17.90;99.90
51793;DHT22;37850;53.178;6.376;2023-04-21T12:09:54;18.10;99.90
51793;DHT22;37850;53.178;6.376;2023-04-21T12:12:21;18.20;99.90
51793;DHT22;37850;53.178;6.376;2023-04-21T12:14:53;18.30;99.80
51793;DHT22;37850;53.178;6.376;2023-04-21T12:17:19;18.30;98.60
51793;DHT22;37850;53.178;6.376;2023-04-21T12:19:48;18.30;96.70
51793;DHT22;37850;53.178;6.376;2023-04-21T12:22:16;18.30;97.60
51793;DHT22;37850;53.178;6.376;2023-04-21T12:24:47;18.30;98.20
51793;DHT22;37850;53.178;6.376;2023-04-21T12:27:13;18.30;97.10
51793;DHT22;37850;53.178;6.376;2023-04-21T12:29:40;18.40;97.60
51793;DHT22;37850;53.178;6.376;2023-04-21T12:32:07;18.40;97.10
51793;DHT22;37850;53.178;6.376;2023-04-21T12:34:33;18.50;96.10
51793;DHT22;37850;53.178;6.376;2023-04-21T12:37:00;18.70;95.50
51793;DHT22;37850;53.178;6.376;2023-04-21T12:39:26;18.70;95.90
51793;DHT22;37850;53.178;6.376;2023-04-21T12:41:53;18.70;95.50
51793;DHT22;37850;53.178;6.376;2023-04-21T12:44:18;18.70;95.40
51793;DHT22;37850;53.178;6.376;2023-04-21T12:46:45;18.60;94.10
51793;DHT22;37850;53.178;6.376;2023-04-21T12:49:13;18.60;94.70
51793;DHT22;37850;53.178;6.376;2023-04-21T12:51:40;18.70;94.50
51793;DHT22;37850;53.178;6.376;2023-04-21T12:54:05;18.70;94.50
51793;DHT22;37850;53.178;6.376;2023-04-21T12:56:40;18.90;94.10
51793;DHT22;37850;53.178;6.376;2023-04-21T12:59:07;18.90;92.90
51793;DHT22;37850;53.178;6.376;2023-04-21T13:01:35;18.90;93.10
51793;DHT22;37850;53.178;6.376;2023-04-21T13:04:03;19.00;93.30
51793;DHT22;37850;53.178;6.376;2023-04-21T13:06:29;19.00;93.30
51793;DHT22;37850;53.178;6.376;2023-04-21T13:08:55;19.00;92.50
51793;DHT22;37850;53.178;6.376;2023-04-21T13:11:24;19.00;92.70
51793;DHT22;37850;53.178;6.376;2023-04-21T13:13:50;19.00;92.40
51793;DHT22;37850;53.178;6.376;2023-04-21T13:16:16;19.00;92.50
51793;DHT22;37850;53.178;6.376;2023-04-21T13:18:44;19.00;92.70
51793;DHT22;37850;53.178;6.376;2023-04-21T13:21:10;19.10;92.30
51793;DHT22;37850;53.178;6.376;2023-04-21T13:23:39;19.10;92.70
51793;DHT22;37850;53.178;6.376;2023-04-21T13:26:06;19.10;92.80
51793;DHT22;37850;53.178;6.376;2023-04-21T13:28:31;19.10;92.40
51793;DHT22;37850;53.178;6.376;2023-04-21T13:30:57;19.10;92.40
51793;DHT22;37850;53.178;6.376;2023-04-21T13:33:24;19.10;92.20
51793;DHT22;37850;53.178;6.376;2023-04-21T13:35:50;19.10;91.60
51793;DHT22;37850;53.178;6.376;2023-04-21T13:38:16;19.00;89.40
51793;DHT22;37850;53.178;6.376;2023-04-21T13:40:42;18.90;91.30
51793;DHT22;37850;53.178;6.376;2023-04-21T13:43:08;19.00;90.70
51793;DHT22;37850;53.178;6.376;2023-04-21T13:45:34;19.10;88.00
51793;DHT22;37850;53.178;6.376;2023-04-21T13:48:00;19.10;87.70
51793;DHT22;37850;53.178;6.376;2023-04-21T13:50:26;19.20;89.30
51793;DHT22;37850;53.178;6.376;2023-04-21T13:52:51;19.20;88.50
51793;DHT22;37850;53.178;6.376;2023-04-21T13:55:17;19.20;89.40
51793;DHT22;37850;53.178;6.376;2023-04-21T13:57:43;19.20;88.40
51793;DHT22;37850;53.178;6.376;2023-04-21T14:00:09;19.20;88.40
51793;DHT22;37850;53.178;6.376;2023-04-21T14:02:39;19.20;88.80
51793;DHT22;37850;53.178;6.376;2023-04-21T14:05:06;19.20;89.50
51793;DHT22;37850;53.178;6.376;2023-04-21T14:07:32;19.20;88.80
51793;DHT22;37850;53.178;6.376;2023-04-21T14:10:00;19.20;88.00
51793;DHT22;37850;53.178;6.376;2023-04-21T14:12:26;19.20;90.10
51793;DHT22;37850;53.178;6.376;2023-04-21T14:14:51;19.20;87.00
51793;DHT22;37850;53.178;6.376;2023-04-21T14:17:17;19.10;84.20
51793;DHT22;37850;53.178;6.376;2023-04-21T14:19:43;19.10;86.20
51793;DHT22;37850;53.178;6.376;2023-04-21T14:22:09;19.10;83.60
51793;DHT22;37850;53.178;6.376;2023-04-21T14:24:34;19.10;86.90
51793;DHT22;37850;53.178;6.376;2023-04-21T14:27:00;19.00;85.90
51793;DHT22;37850;53.178;6.376;2023-04-21T14:29:26;19.10;86.80
51793;DHT22;37850;53.178;6.376;2023-04-21T14:31:52;19.10;86.80
51793;DHT22;37850;53.178;6.376;2023-04-21T14:34:23;19.10;87.80
51793;DHT22;37850;53.178;6.376;2023-04-21T14:36:50;19.30;90.00
51793;DHT22;37850;53.178;6.376;2023-04-21T14:39:16;19.40;86.80
51793;DHT22;37850;53.178;6.376;2023-04-21T14:41:42;19.50;85.00
51793;DHT22;37850;53.178;6.376;2023-04-21T14:44:11;19.50;86.10
51793;DHT22;37850;53.178;6.376;2023-04-21T14:46:37;19.50;86.40
51793;DHT22;37850;53.178;6.376;2023-04-21T14:49:03;19.50;84.40
51793;DHT22;37850;53.178;6.376;2023-04-21T14:51:29;19.50;84.10
51793;DHT22;37850;53.178;6.376;2023-04-21T14:53:56;19.50;85.20
51793;DHT22;37850;53.178;6.376;2023-04-21T14:56:22;19.50;85.50
51793;DHT22;37850;53.178;6.376;2023-04-21T14:58:48;19.50;83.40
51793;DHT22;37850;53.178;6.376;2023-04-21T15:01:14;19.50;84.00
51793;DHT22;37850;53.178;6.376;2023-04-21T15:03:40;19.60;83.20
51793;DHT22;37850;53.178;6.376;2023-04-21T15:06:06;19.60;85.00
51793;DHT22;37850;53.178;6.376;2023-04-21T15:08:32;19.70;82.50
51793;DHT22;37850;53.178;6.376;2023-04-21T15:10:58;19.80;83.80
51793;DHT22;37850;53.178;6.376;2023-04-21T15:13:27;19.80;81.20
51793;DHT22;37850;53.178;6.376;2023-04-21T15:15:53;19.80;82.00
51793;DHT22;37850;53.178;6.376;2023-04-21T15:18:20;19.80;81.50
51793;DHT22;37850;53.178;6.376;2023-04-21T15:20:45;19.90;83.00
51793;DHT22;37850;53.178;6.376;2023-04-21T15:23:11;19.90;84.20
51793;DHT22;37850;53.178;6.376;2023-04-21T15:25:37;20.00;82.50
51793;DHT22;37850;53.178;6.376;2023-04-21T15:28:03;20.00;83.40
51793;DHT22;37850;53.178;6.376;2023-04-21T15:30:29;20.00;82.60
51793;DHT22;37850;53.178;6.376;2023-04-21T15:32:55;19.90;83.00
51793;DHT22;37850;53.178;6.376;2023-04-21T15:35:21;19.80;82.40
51793;DHT22;37850;53.178;6.376;2023-04-21T15:37:47;19.70;83.20
51793;DHT22;37850;53.178;6.376;2023-04-21T15:40:13;19.70;81.60
51793;DHT22;37850;53.178;6.376;2023-04-21T15:42:38;19.70;81.50
51793;DHT22;37850;53.178;6.376;2023-04-21T15:45:05;19.60;82.20
51793;DHT22;37850;53.178;6.376;2023-04-21T15:47:30;19.60;83.30
51793;DHT22;37850;53.178;6.376;2023-04-21T15:49:56;19.60;83.00
51793;DHT22;37850;53.178;6.376;2023-04-21T15:52:22;19.50;83.70
51793;DHT22;37850;53.178;6.376;2023-04-21T15:54:48;19.40;83.40
51793;DHT22;37850;53.178;6.376;2023-04-21T15:57:14;19.40;81.90